Terminal Aerodrome Forecast
Issued by NWS Charleston, WV

Current Version | Previous Version | Graphics & Text | Print | Product List | Glossary On
Versions: 1 2 3 4 5 6 7 8 9 10 11 12 13 14 15 16 17 18 19 20 21 22 23 24 25 26 27 28 29
549
FTUS41 KRLX 300254 AAA
TAFCRW
TAF AMD
KCRW 300254Z 3003/3024 VRB03KT P6SM FEW250
     FM300800 00000KT P6SM FEW250
     FM300830 00000KT 1 1/2SM BR SCT001
     FM300900 00000KT 1/4SM FG VV001
     FM301300 00000KT 4SM BR FEW250
     FM301330 01004KT P6SM SCT040=

USA.gov is the U.S. government's official web portal to all federal, state and local government web resources and services.